Time;durP1;ratioP1;P1;durP2;ratioP2;P2;SDS_P1;SDS_P2;PMS_P1;PMS_P2;Temp;Humidity;BMP_temperature;BMP_pressure;BME280_temperature;BME280_humidity;BME280_pressure;Samples;Min_cycle;Max_cycle;Signal;HPM_P1;HPM_P2
2022/10/24 00:00:14;;;;;;;;;;;;;;;19.90;52.11;95468.41;4946806;28;20023;-68
2022/10/24 00:02:39;;;;;;;;;;;;;;;19.30;53.53;95471.38;4948835;28;20467;-68
2022/10/24 00:05:05;;;;;;;;;;;;;;;19.38;53.39;95480.41;4948538;28;20057;-67
2022/10/24 00:07:30;;;;;;;;;;;;;;;19.27;53.97;95487.47;4949872;28;20492;-67
2022/10/24 00:09:55;;;;;;;;;;;;;;;19.21;55.08;95484.25;4949494;28;20015;-68
2022/10/24 00:12:20;;;;;;;;;;;;;;;19.34;55.16;95485.69;4966781;28;20476;-68
2022/10/24 00:14:46;;;;;;;;;;;;;;;19.12;55.83;95480.97;4950675;28;20015;-67
2022/10/24 00:17:11;;;;;;;;;;;;;;;19.13;55.85;95482.53;4949435;29;20026;-67
2022/10/24 00:19:36;;;;;;;;;;;;;;;19.66;54.75;95467.56;4949209;28;20391;-68
2022/10/24 00:22:01;;;;;;;;;;;;;;;19.68;54.76;95480.69;4950661;29;20484;-68
2022/10/24 00:24:27;;;;;;;;;;;;;;;19.33;55.45;95491.47;4950745;28;20011;-67
2022/10/24 00:26:52;;;;;;;;;;;;;;;19.93;54.64;95510.91;4950221;29;20066;-67
2022/10/24 00:29:18;;;;;;;;;;;;;;;19.91;54.50;95518.56;4950392;29;20058;-69
2022/10/24 00:31:44;;;;;;;;;;;;;;;20.20;54.26;95536.13;4949209;28;20015;-68
2022/10/24 00:34:09;;;;;;;;;;;;;;;19.95;55.98;95558.00;4951648;29;20011;-68
2022/10/24 00:36:34;;;;;;;;;;;;;;;19.96;57.95;95559.59;4950451;28;20019;-67
2022/10/24 00:39:00;;;;;;;;;;;;;;;19.37;59.95;95557.06;4950799;28;20019;-68
2022/10/24 00:41:27;;;;;;;;;;;;;;;18.25;64.25;95549.94;4950034;29;20106;-67
2022/10/24 00:44:11;;;;;;;;;;;;;;;17.67;66.25;95535.97;4946070;28;20045;-67
2022/10/24 00:46:36;;;;;;;;;;;;;;;18.41;65.71;95536.53;4949997;28;20023;-67
2022/10/24 00:49:01;;;;;;;;;;;;;;;18.40;65.71;95534.97;4950790;28;20022;-68
2022/10/24 00:51:32;;;;;;;;;;;;;;;18.44;65.58;95543.94;4950502;28;20020;-67
2022/10/24 00:54:00;;;;;;;;;;;;;;;18.63;66.57;95521.69;4950411;28;20026;-68
2022/10/24 00:56:27;;;;;;;;;;;;;;;18.78;66.83;95514.78;4950915;29;20414;-67
2022/10/24 00:58:54;;;;;;;;;;;;;;;18.84;67.24;95513.44;4948436;28;20023;-70
2022/10/24 01:01:19;;;;;;;;;;;;;;;18.85;66.82;95518.47;4950129;28;20019;-68
2022/10/24 01:03:44;;;;;;;;;;;;;;;18.88;66.61;95508.88;4951128;28;20058;-68
2022/10/24 01:06:24;;;;;;;;;;;;;;;18.85;66.64;95509.59;4949658;28;20026;-69
2022/10/24 01:08:53;;;;;;;;;;;;;;;18.91;66.44;95497.41;4950191;29;20014;-67
2022/10/24 01:11:18;;;;;;;;;;;;;;;18.99;66.77;95495.66;4950234;29;20059;-67
2022/10/24 01:13:50;;;;;;;;;;;;;;;19.05;66.48;95480.81;4950053;28;20573;-67
2022/10/24 01:16:18;;;;;;;;;;;;;;;19.08;66.22;95477.41;4949676;28;20391;-67
2022/10/24 01:19:01;;;;;;;;;;;;;;;19.09;65.71;95468.16;4948848;29;20098;-67
2022/10/24 01:21:30;;;;;;;;;;;;;;;18.99;66.12;95456.03;4942760;28;20083;-69
2022/10/24 01:24:01;;;;;;;;;;;;;;;19.00;66.08;95448.72;4937493;29;20020;-66
2022/10/24 01:26:30;;;;;;;;;;;;;;;19.00;66.22;95436.03;4934636;29;20011;-67
2022/10/24 01:29:10;;;;;;;;;;;;;;;19.02;66.28;95430.28;4951303;28;20028;-68
2022/10/24 01:31:48;;;;;;;;;;;;;;;19.02;65.95;95427.56;4943249;28;20046;-67
2022/10/24 01:34:24;;;;;;;;;;;;;;;19.02;65.87;95406.78;4950834;28;20065;-67
2022/10/24 01:36:52;;;;;;;;;;;;;;;19.01;65.87;95410.63;4949242;28;20065;-67
2022/10/24 01:39:19;;;;;;;;;;;;;;;18.99;66.09;95418.28;4949433;29;20062;-67
2022/10/24 01:41:46;;;;;;;;;;;;;;;18.94;66.05;95411.25;4947808;28;20085;-68
2022/10/24 01:44:11;;;;;;;;;;;;;;;18.94;66.22;95418.56;4964235;28;20050;-67
2022/10/24 01:46:38;;;;;;;;;;;;;;;18.91;66.06;95416.56;4949611;28;20070;-68
2022/10/24 01:49:12;;;;;;;;;;;;;;;18.95;65.94;95414.72;4948669;28;20012;-67
2022/10/24 01:51:38;;;;;;;;;;;;;;;18.61;66.06;95418.88;4949793;29;20593;-67
2022/10/24 01:54:05;;;;;;;;;;;;;;;18.71;66.10;95418.41;4948993;28;20011;-68
2022/10/24 01:56:30;;;;;;;;;;;;;;;18.85;66.07;95421.44;4948970;28;20020;-67
2022/10/24 01:59:28;;;;;;;;;;;;;;;18.90;65.76;95415.78;4949469;28;20034;-67
2022/10/24 02:02:05;;;;;;;;;;;;;;;18.74;65.79;95400.75;4991953;28;20165;-67
2022/10/24 02:04:32;;;;;;;;;;;;;;;18.74;65.83;95401.53;4949197;28;20042;-67
2022/10/24 02:07:00;;;;;;;;;;;;;;;18.83;66.07;95377.09;4949667;29;20047;-67
2022/10/24 02:09:25;;;;;;;;;;;;;;;18.76;66.53;95358.84;4949404;29;20109;-67
2022/10/24 02:11:51;;;;;;;;;;;;;;;18.73;66.51;95345.28;4950110;28;20113;-67
2022/10/24 02:14:21;;;;;;;;;;;;;;;18.69;66.91;95319.06;4949110;28;20019;-67
2022/10/24 02:16:47;;;;;;;;;;;;;;;18.73;66.77;95310.25;4947831;29;20483;-67
2022/10/24 02:19:12;;;;;;;;;;;;;;;18.77;66.87;95319.97;4949357;28;20068;-68
2022/10/24 02:22:04;;;;;;;;;;;;;;;18.85;66.76;95326.31;4949038;28;20015;-68
2022/10/24 02:24:36;;;;;;;;;;;;;;;18.86;66.50;95306.31;4979924;28;20064;-67
2022/10/24 02:27:05;;;;;;;;;;;;;;;18.82;66.22;95305.44;4947508;28;20019;-68
2022/10/24 02:29:50;;;;;;;;;;;;;;;18.83;66.60;95291.63;4948714;28;20019;-68
2022/10/24 02:32:18;;;;;;;;;;;;;;;18.85;66.58;95283.97;4948587;28;20026;-68
2022/10/24 02:34:45;;;;;;;;;;;;;;;18.82;66.57;95281.97;4948782;29;20015;-68
2022/10/24 02:37:11;;;;;;;;;;;;;;;18.35;67.22;95277.47;4947592;28;20173;-68
2022/10/24 02:39:38;;;;;;;;;;;;;;;18.48;67.40;95274.66;4948891;28;20026;-67
2022/10/24 02:42:04;;;;;;;;;;;;;;;18.45;67.46;95281.53;4948784;29;20510;-68
2022/10/24 02:44:30;;;;;;;;;;;;;;;18.46;67.44;95280.38;4949471;28;20019;-68
2022/10/24 02:46:57;;;;;;;;;;;;;;;18.45;67.43;95265.38;4948795;28;20027;-68
2022/10/24 02:49:23;;;;;;;;;;;;;;;17.99;67.19;95208.56;4948675;28;20027;-67
2022/10/24 02:51:49;;;;;;;;;;;;;;;18.62;67.00;95278.44;4950087;28;20018;-68
2022/10/24 02:54:15;;;;;;;;;;;;;;;18.58;66.82;95282.19;4949588;28;20742;-67
2022/10/24 02:56:44;;;;;;;;;;;;;;;18.63;66.71;95285.41;4949627;28;20011;-68
2022/10/24 02:59:09;;;;;;;;;;;;;;;18.51;66.54;95290.13;4947920;28;20143;-69
2022/10/24 03:01:34;;;;;;;;;;;;;;;18.69;66.50;95280.56;4948688;28;20498;-69
2022/10/24 03:03:59;;;;;;;;;;;;;;;18.79;66.27;95268.44;4950048;29;20011;-69
2022/10/24 03:06:25;;;;;;;;;;;;;;;18.79;66.00;95273.84;4946156;29;20046;-69
2022/10/24 03:08:50;;;;;;;;;;;;;;;18.89;66.02;95273.28;4948234;29;20015;-69
2022/10/24 03:11:16;;;;;;;;;;;;;;;18.91;65.88;95276.41;4950491;28;20023;-69
2022/10/24 03:13:41;;;;;;;;;;;;;;;18.90;65.87;95277.53;4939586;28;20730;-69
2022/10/24 03:16:09;;;;;;;;;;;;;;;18.89;65.88;95276.75;4937907;28;20063;-70
2022/10/24 03:18:34;;;;;;;;;;;;;;;18.93;65.70;95284.91;4938970;29;20020;-69
2022/10/24 03:20:59;;;;;;;;;;;;;;;18.92;65.38;95277.94;4941530;28;20157;-67
2022/10/24 03:23:27;;;;;;;;;;;;;;;18.83;65.60;95285.44;4929968;29;20438;-67
2022/10/24 03:25:53;;;;;;;;;;;;;;;18.77;65.78;95281.47;4941011;28;20026;-67
2022/10/24 03:28:18;;;;;;;;;;;;;;;18.72;65.98;95287.91;4949992;28;20019;-67
2022/10/24 03:30:44;;;;;;;;;;;;;;;18.84;65.69;95293.22;4949014;28;20021;-66
2022/10/24 03:33:09;;;;;;;;;;;;;;;18.78;65.77;95291.91;4949249;28;20066;-67
2022/10/24 03:35:34;;;;;;;;;;;;;;;18.30;66.53;95310.03;4948575;28;20138;-68
2022/10/24 03:38:00;;;;;;;;;;;;;;;18.54;66.49;95306.38;4949332;28;20018;-68
2022/10/24 03:40:25;;;;;;;;;;;;;;;18.78;65.98;95293.81;4947605;28;20105;-69
2022/10/24 03:42:50;;;;;;;;;;;;;;;18.94;65.37;95291.88;4952271;28;20097;-68
2022/10/24 03:45:15;;;;;;;;;;;;;;;17.42;69.40;95298.56;4949284;28;20019;-68
2022/10/24 03:47:40;;;;;;;;;;;;;;;16.98;72.43;95308.47;4951583;29;20129;-68
2022/10/24 03:50:06;;;;;;;;;;;;;;;17.45;70.33;95308.63;4951355;28;20015;-69
2022/10/24 03:52:32;;;;;;;;;;;;;;;18.17;68.16;95298.59;4951405;29;20080;-69
2022/10/24 03:54:57;;;;;;;;;;;;;;;18.53;66.70;95298.63;4950776;28;20015;-69
2022/10/24 03:57:22;;;;;;;;;;;;;;;18.75;66.19;95308.00;4952390;29;20060;-67
2022/10/24 03:59:47;;;;;;;;;;;;;;;18.86;65.59;95303.63;4951510;28;20141;-69
2022/10/24 04:02:13;;;;;;;;;;;;;;;18.98;64.92;95308.09;4949849;28;20375;-69
2022/10/24 04:04:38;;;;;;;;;;;;;;;17.93;64.75;95127.31;4950196;28;20027;-69
2022/10/24 04:07:04;;;;;;;;;;;;;;;19.14;64.40;95306.13;4951407;29;20098;-69
2022/10/24 04:09:30;;;;;;;;;;;;;;;19.21;64.23;95317.84;4951984;28;20011;-69
2022/10/24 04:11:55;;;;;;;;;;;;;;;18.55;65.83;95332.16;4950695;28;20388;-69
2022/10/24 04:14:20;;;;;;;;;;;;;;;18.81;65.62;95334.31;4952058;29;20010;-69
2022/10/24 04:16:45;;;;;;;;;;;;;;;18.42;66.16;95347.63;4949802;28;20072;-69
2022/10/24 04:19:11;;;;;;;;;;;;;;;18.80;65.31;95334.69;4951067;28;20016;-69
2022/10/24 04:21:36;;;;;;;;;;;;;;;18.98;64.95;95340.44;4951829;28;20015;-69
2022/10/24 04:24:01;;;;;;;;;;;;;;;18.75;65.34;95351.91;4950604;28;20019;-69
2022/10/24 04:26:27;;;;;;;;;;;;;;;18.97;64.97;95350.44;4951398;29;20011;-69
2022/10/24 04:28:52;;;;;;;;;;;;;;;19.01;65.24;95351.31;4949847;28;20016;-69
2022/10/24 04:31:17;;;;;;;;;;;;;;;18.62;66.21;95358.47;4948988;28;20395;-69
2022/10/24 04:33:42;;;;;;;;;;;;;;;18.79;66.03;95355.47;4951556;28;20015;-69
2022/10/24 04:36:08;;;;;;;;;;;;;;;18.89;66.05;95364.91;4951295;29;20065;-69
2022/10/24 04:38:33;;;;;;;;;;;;;;;18.92;65.72;95374.97;4950808;29;20026;-69
2022/10/24 04:40:58;;;;;;;;;;;;;;;18.96;65.71;95375.84;4950504;28;20077;-69
2022/10/24 04:43:24;;;;;;;;;;;;;;;19.00;65.49;95354.38;4950858;28;20023;-69
2022/10/24 04:45:49;;;;;;;;;;;;;;;19.05;65.35;95352.19;4949787;28;20019;-69
2022/10/24 04:48:15;;;;;;;;;;;;;;;19.11;65.29;95336.50;4950133;29;20028;-68
2022/10/24 04:50:41;;;;;;;;;;;;;;;19.10;64.99;95341.13;4949440;28;20053;-69
2022/10/24 04:53:06;;;;;;;;;;;;;;;19.18;65.04;95345.50;4949943;29;20023;-72
2022/10/24 04:55:32;;;;;;;;;;;;;;;19.18;64.61;95342.03;4950268;28;20024;-69
2022/10/24 04:57:57;;;;;;;;;;;;;;;19.23;64.63;95337.13;4951211;29;20102;-69
2022/10/24 05:00:22;;;;;;;;;;;;;;;19.09;65.17;95336.06;4948613;28;20066;-69
2022/10/24 05:02:47;;;;;;;;;;;;;;;19.04;65.20;95347.94;4950939;29;20022;-69
2022/10/24 05:05:13;;;;;;;;;;;;;;;19.04;65.15;95334.44;4950058;28;20021;-69
2022/10/24 05:07:38;;;;;;;;;;;;;;;19.04;65.50;95342.53;4950802;29;20011;-69
2022/10/24 05:10:04;;;;;;;;;;;;;;;19.09;65.53;95342.25;4949781;28;20015;-69
2022/10/24 05:12:29;;;;;;;;;;;;;;;19.13;65.37;95343.09;4951068;29;20030;-69
2022/10/24 05:14:54;;;;;;;;;;;;;;;19.11;65.23;95339.19;4948801;28;20019;-69
2022/10/24 05:17:19;;;;;;;;;;;;;;;19.14;65.10;95339.28;4950075;28;20061;-68
2022/10/24 05:19:45;;;;;;;;;;;;;;;19.14;65.30;95350.06;4948100;28;20033;-69
2022/10/24 05:22:10;;;;;;;;;;;;;;;19.15;65.20;95348.94;4950430;28;20422;-69
2022/10/24 05:24:35;;;;;;;;;;;;;;;19.14;65.30;95341.97;4964635;28;20065;-69
2022/10/24 05:27:00;;;;;;;;;;;;;;;19.06;65.56;95359.13;4949276;28;20011;-69
2022/10/24 05:29:26;;;;;;;;;;;;;;;19.08;65.47;95350.69;4964513;28;20489;-69
2022/10/24 05:31:51;;;;;;;;;;;;;;;19.10;65.26;95364.59;4948322;28;20560;-69
2022/10/24 05:34:16;;;;;;;;;;;;;;;19.13;65.28;95367.34;4950566;29;20467;-69
2022/10/24 05:36:41;;;;;;;;;;;;;;;19.17;65.02;95365.53;4949369;28;20027;-69
2022/10/24 05:39:07;;;;;;;;;;;;;;;19.18;64.96;95371.69;4950759;29;20011;-69
2022/10/24 05:41:32;;;;;;;;;;;;;;;19.15;65.11;95373.19;4949086;28;20020;-68
2022/10/24 05:43:57;;;;;;;;;;;;;;;19.10;65.29;95370.78;4949489;28;20019;-70
2022/10/24 05:46:22;;;;;;;;;;;;;;;19.20;64.94;95369.44;4948478;28;20372;-70
2022/10/24 05:48:48;;;;;;;;;;;;;;;19.16;65.06;95373.97;4950648;29;20411;-70
2022/10/24 05:51:13;;;;;;;;;;;;;;;19.18;64.96;95383.25;4949431;28;20118;-70
2022/10/24 05:53:38;;;;;;;;;;;;;;;19.14;64.82;95387.81;4948944;29;20030;-70
2022/10/24 05:56:04;;;;;;;;;;;;;;;19.18;64.54;95382.47;4948331;28;20438;-70
2022/10/24 05:58:30;;;;;;;;;;;;;;;19.16;64.55;95392.84;4950331;29;20011;-69
2022/10/24 06:00:55;;;;;;;;;;;;;;;19.21;64.52;95400.66;4946688;28;20026;-70
2022/10/24 06:03:21;;;;;;;;;;;;;;;19.21;63.98;95406.84;4946174;29;20019;-70
2022/10/24 06:05:46;;;;;;;;;;;;;;;19.23;64.05;95403.78;4949852;29;20014;-69
2022/10/24 06:08:11;;;;;;;;;;;;;;;19.17;64.22;95400.56;4949899;28;20020;-69
2022/10/24 06:10:36;;;;;;;;;;;;;;;19.21;64.17;95395.28;4949090;28;20015;-71
2022/10/24 06:13:01;;;;;;;;;;;;;;;19.27;64.17;95403.88;4934881;28;20022;-69
2022/10/24 06:15:27;;;;;;;;;;;;;;;19.31;63.83;95402.81;4949549;28;20015;-70
2022/10/24 06:17:52;;;;;;;;;;;;;;;19.34;64.00;95398.63;4950456;29;20101;-69
2022/10/24 06:20:18;;;;;;;;;;;;;;;19.26;63.92;95399.59;4947509;28;20027;-70
2022/10/24 06:22:46;;;;;;;;;;;;;;;19.27;63.64;95391.16;4948792;28;20019;-66
2022/10/24 06:25:11;;;;;;;;;;;;;;;19.29;63.95;95393.50;4949678;29;20059;-66
2022/10/24 06:27:37;;;;;;;;;;;;;;;19.31;63.63;95396.63;4949072;28;20133;-66
2022/10/24 06:30:03;;;;;;;;;;;;;;;19.39;63.72;95393.72;4948342;28;20022;-67
2022/10/24 06:32:28;;;;;;;;;;;;;;;19.44;63.34;95388.03;4963773;28;20019;-68
2022/10/24 06:34:53;;;;;;;;;;;;;;;19.52;63.28;95388.97;4944072;28;20023;-66
2022/10/24 06:37:18;;;;;;;;;;;;;;;19.58;62.96;95389.47;4947803;28;20019;-67
2022/10/24 06:39:44;;;;;;;;;;;;;;;19.56;62.91;95380.97;4948506;28;20068;-66
2022/10/24 06:42:10;;;;;;;;;;;;;;;19.60;63.00;95377.22;4948358;28;20096;-68
2022/10/24 06:44:35;;;;;;;;;;;;;;;19.64;62.85;95369.97;4949523;28;20015;-68
2022/10/24 06:47:00;;;;;;;;;;;;;;;19.61;62.82;95361.81;4947891;28;20030;-67
2022/10/24 06:49:25;;;;;;;;;;;;;;;19.71;62.58;95353.94;4948886;28;20015;-68
2022/10/24 06:51:51;;;;;;;;;;;;;;;19.71;62.30;95353.16;4949117;29;20101;-68
2022/10/24 06:54:16;;;;;;;;;;;;;;;19.76;62.35;95352.06;4949418;29;20098;-67
2022/10/24 06:56:41;;;;;;;;;;;;;;;19.73;62.32;95375.94;4948256;28;20054;-68
2022/10/24 06:59:08;;;;;;;;;;;;;;;19.72;62.26;95374.38;4949150;29;20660;-68
2022/10/24 07:01:34;;;;;;;;;;;;;;;19.50;63.00;95388.56;4946883;28;20019;-67
2022/10/24 07:03:59;;;;;;;;;;;;;;;19.61;62.99;95389.59;4949448;29;20489;-68
2022/10/24 07:06:26;;;;;;;;;;;;;;;19.00;62.82;95301.25;4947179;28;20073;-69
2022/10/24 07:08:52;;;;;;;;;;;;;;;19.69;62.98;95380.47;4949214;28;20011;-68
2022/10/24 07:11:18;;;;;;;;;;;;;;;19.80;62.66;95385.28;4947754;28;20071;-69
2022/10/24 07:13:43;;;;;;;;;;;;;;;19.81;62.15;95376.88;4945767;28;20065;-70
2022/10/24 07:16:08;;;;;;;;;;;;;;;19.82;62.26;95381.13;4950986;28;20065;-67
2022/10/24 07:18:34;;;;;;;;;;;;;;;19.97;62.59;95388.34;4948907;29;20098;-67
2022/10/24 07:21:13;;;;;;;;;;;;;;;20.09;62.13;95398.19;4949847;28;20021;-69
2022/10/24 07:23:38;;;;;;;;;;;;;;;20.20;61.53;95406.50;4948492;28;20027;-68
2022/10/24 07:26:08;;;;;;;;;;;;;;;20.24;61.53;95415.44;4981593;28;20064;-69
2022/10/24 07:28:34;;;;;;;;;;;;;;;20.30;61.04;95410.53;4948506;28;20099;-66
2022/10/24 07:30:59;;;;;;;;;;;;;;;20.38;60.97;95413.00;4949116;28;20098;-67
2022/10/24 07:33:25;;;;;;;;;;;;;;;20.45;60.55;95413.09;4949475;28;20019;-66
2022/10/24 07:35:50;;;;;;;;;;;;;;;20.45;60.48;95409.63;4947267;29;20099;-67
2022/10/24 07:38:15;;;;;;;;;;;;;;;20.54;60.39;95396.69;4949538;29;20054;-66
2022/10/24 07:40:41;;;;;;;;;;;;;;;20.63;60.04;95410.75;4946281;28;20376;-68
2022/10/24 07:43:06;;;;;;;;;;;;;;;20.70;60.02;95410.84;4949205;28;20041;-65
2022/10/24 07:45:31;;;;;;;;;;;;;;;20.69;60.01;95417.41;4949563;28;20022;-67
2022/10/24 07:47:58;;;;;;;;;;;;;;;20.65;60.25;95416.56;4948289;28;20093;-68
2022/10/24 07:50:23;;;;;;;;;;;;;;;20.58;60.04;95421.09;4949235;28;20065;-68
2022/10/24 07:52:48;;;;;;;;;;;;;;;20.54;59.95;95412.13;4949318;29;20101;-69
2022/10/24 07:55:14;;;;;;;;;;;;;;;20.56;59.92;95410.59;4981062;28;20551;-67
2022/10/24 07:57:39;;;;;;;;;;;;;;;20.56;59.80;95418.72;4947915;29;20015;-67
2022/10/24 08:00:04;;;;;;;;;;;;;;;20.49;59.37;95432.13;4947420;28;20744;-69
2022/10/24 08:02:30;;;;;;;;;;;;;;;20.51;59.59;95425.19;4947687;29;20114;-69
2022/10/24 08:04:55;;;;;;;;;;;;;;;20.51;59.85;95422.50;4948436;28;20391;-68
2022/10/24 08:07:20;;;;;;;;;;;;;;;20.48;60.13;95425.16;4949029;29;20037;-69
2022/10/24 08:09:46;;;;;;;;;;;;;;;20.46;60.29;95419.28;4948533;28;20522;-69
2022/10/24 08:12:12;;;;;;;;;;;;;;;20.49;60.43;95427.50;4962818;28;20023;-68
2022/10/24 08:14:38;;;;;;;;;;;;;;;20.55;60.22;95425.28;4946848;28;20016;-70
2022/10/24 08:17:03;;;;;;;;;;;;;;;20.60;60.22;95410.69;4948825;28;20479;-69
2022/10/24 08:19:29;;;;;;;;;;;;;;;20.64;60.15;95414.22;4948260;29;20019;-67
2022/10/24 08:21:54;;;;;;;;;;;;;;;20.73;60.08;95401.25;4947542;28;20042;-67
2022/10/24 08:24:19;;;;;;;;;;;;;;;20.81;59.78;95402.13;4947416;28;20020;-67
2022/10/24 08:26:45;;;;;;;;;;;;;;;20.86;59.38;95399.91;4948478;28;20019;-66
2022/10/24 08:29:10;;;;;;;;;;;;;;;20.91;59.37;95402.28;4951781;29;20020;-68
2022/10/24 08:31:36;;;;;;;;;;;;;;;20.98;59.11;95399.69;4948618;28;20782;-67
2022/10/24 08:34:04;;;;;;;;;;;;;;;21.06;58.70;95399.78;4951795;29;20013;-67
2022/10/24 08:36:30;;;;;;;;;;;;;;;21.15;58.50;95401.09;4966062;28;20016;-66
2022/10/24 08:38:56;;;;;;;;;;;;;;;21.29;58.42;95408.59;4950149;28;20468;-67
2022/10/24 08:41:25;;;;;;;;;;;;;;;21.38;57.94;95405.69;4949234;28;20015;-67
2022/10/24 08:43:51;;;;;;;;;;;;;;;21.49;57.83;95417.41;4932123;29;20024;-67
2022/10/24 08:46:27;;;;;;;;;;;;;;;21.56;57.93;95414.81;4932114;29;20023;-67
2022/10/24 08:48:54;;;;;;;;;;;;;;;21.13;57.10;95416.91;4931202;28;20015;-67
2022/10/24 08:51:33;;;;;;;;;;;;;;;21.36;57.24;95421.50;4951492;28;20022;-66
2022/10/24 08:54:00;;;;;;;;;;;;;;;21.30;57.10;95426.47;4951386;29;20011;-67
2022/10/24 08:56:27;;;;;;;;;;;;;;;21.17;56.81;95430.47;4965617;28;20019;-66
2022/10/24 08:58:53;;;;;;;;;;;;;;;21.13;57.74;95435.06;4949762;29;20122;-66
2022/10/24 09:01:27;;;;;;;;;;;;;;;21.10;58.16;95438.50;4965513;28;20026;-66
2022/10/24 09:03:53;;;;;;;;;;;;;;;20.99;58.63;95435.63;4951377;29;20100;-66
2022/10/24 09:06:19;;;;;;;;;;;;;;;20.93;58.66;95437.84;4949302;29;20059;-66
2022/10/24 09:08:58;;;;;;;;;;;;;;;20.49;59.10;95434.81;4950890;29;20012;-68
2022/10/24 09:11:23;;;;;;;;;;;;;;;20.36;58.67;95442.28;4950305;28;20037;-67
2022/10/24 09:13:49;;;;;;;;;;;;;;;20.60;59.10;95441.19;4949837;29;20023;-68
2022/10/24 09:16:18;;;;;;;;;;;;;;;20.82;59.43;95444.22;4965707;28;20379;-66
2022/10/24 09:18:45;;;;;;;;;;;;;;;21.00;59.83;95439.91;4951053;29;20012;-67
2022/10/24 09:21:12;;;;;;;;;;;;;;;21.13;59.93;95435.81;4965945;28;20023;-66
2022/10/24 09:23:38;;;;;;;;;;;;;;;21.20;60.05;95435.94;4950297;28;20015;-70
2022/10/24 09:26:04;;;;;;;;;;;;;;;21.21;59.87;95437.50;4949538;28;20128;-67
2022/10/24 09:28:32;;;;;;;;;;;;;;;21.27;59.92;95432.56;4951046;28;20022;-67
2022/10/24 09:30:57;;;;;;;;;;;;;;;21.27;59.49;95438.75;4946084;28;20012;-66
2022/10/24 09:33:27;;;;;;;;;;;;;;;21.25;59.76;95449.16;4943921;29;20474;-67
2022/10/24 09:35:53;;;;;;;;;;;;;;;21.26;59.41;95448.00;4949461;28;20015;-67
2022/10/24 09:38:24;;;;;;;;;;;;;;;21.27;59.06;95444.16;4950334;28;20016;-67
2022/10/24 09:40:57;;;;;;;;;;;;;;;21.31;59.17;95444.25;4950820;29;20094;-66
2022/10/24 09:43:30;;;;;;;;;;;;;;;21.29;59.35;95438.38;4951039;28;20065;-67
2022/10/24 09:46:24;;;;;;;;;;;;;;;21.27;59.42;95438.75;4950735;29;20019;-66
2022/10/24 09:48:55;;;;;;;;;;;;;;;21.17;59.64;95439.38;4975901;28;20022;-66
2022/10/24 09:51:32;;;;;;;;;;;;;;;21.10;60.01;95441.97;4949642;29;20500;-66
2022/10/24 09:54:04;;;;;;;;;;;;;;;21.14;60.12;95434.72;4950579;28;20017;-67
2022/10/24 09:56:34;;;;;;;;;;;;;;;21.25;60.23;95440.28;4929780;29;20019;-66
2022/10/24 09:59:18;;;;;;;;;;;;;;;21.28;60.05;95451.13;4931228;28;20045;-66
2022/10/24 10:01:44;;;;;;;;;;;;;;;20.89;59.94;95401.09;4931443;29;20094;-66
2022/10/24 10:04:14;;;;;;;;;;;;;;;21.16;60.09;95445.94;4946476;29;20015;-67
2022/10/24 10:06:44;;;;;;;;;;;;;;;20.18;62.08;95462.78;4948454;28;20041;-67
2022/10/24 10:09:22;;;;;;;;;;;;;;;20.50;61.78;95458.00;4948483;28;20110;-67
2022/10/24 10:11:53;;;;;;;;;;;;;;;20.60;61.79;95456.63;4950264;29;20018;-65
2022/10/24 10:14:21;;;;;;;;;;;;;;;20.59;62.19;95442.34;4949314;29;20098;-66
2022/10/24 10:16:57;;;;;;;;;;;;;;;20.58;62.19;95443.47;4948468;28;20015;-66
2022/10/24 10:19:22;;;;;;;;;;;;;;;20.57;62.29;95443.81;4950148;29;20015;-66
2022/10/24 10:22:07;;;;;;;;;;;;;;;20.55;62.58;95440.72;4950109;28;20106;-66
2022/10/24 10:24:40;;;;;;;;;;;;;;;20.52;62.88;95436.78;4965276;28;20490;-66
2022/10/24 10:27:20;;;;;;;;;;;;;;;20.49;62.80;95441.00;4949085;29;20535;-68
2022/10/24 10:29:45;;;;;;;;;;;;;;;20.48;63.43;95441.38;4950047;29;20517;-68
2022/10/24 10:32:19;;;;;;;;;;;;;;;20.48;63.44;95444.84;4949814;28;20016;-67
2022/10/24 10:35:02;;;;;;;;;;;;;;;20.44;63.06;95451.31;4948325;28;20023;-68
2022/10/24 10:37:29;;;;;;;;;;;;;;;20.05;63.65;95455.97;4933740;28;20638;-68
2022/10/24 10:40:04;;;;;;;;;;;;;;;20.02;65.13;95452.09;4929445;29;20099;-68
2022/10/24 10:42:40;;;;;;;;;;;;;;;20.14;66.71;95461.94;4930399;29;20447;-66
2022/10/24 10:45:13;;;;;;;;;;;;;;;20.23;67.84;95467.91;4929689;29;20069;-68
2022/10/24 10:47:50;;;;;;;;;;;;;;;20.24;67.62;95464.06;4945040;28;20042;-66
2022/10/24 10:50:20;;;;;;;;;;;;;;;20.21;67.73;95465.53;4930762;29;20077;-68
2022/10/24 10:52:49;;;;;;;;;;;;;;;20.15;66.79;95464.28;4929736;29;20110;-66
2022/10/24 10:55:24;;;;;;;;;;;;;;;19.92;65.89;95458.84;4929028;29;20015;-68
2022/10/24 10:57:58;;;;;;;;;;;;;;;19.58;65.29;95470.44;4930540;29;20033;-66
2022/10/24 11:00:43;;;;;;;;;;;;;;;19.26;65.80;95472.44;4930726;29;20493;-66
2022/10/24 11:03:09;;;;;;;;;;;;;;;18.32;68.59;95468.56;4945031;28;20656;-66
2022/10/24 11:05:54;;;;;;;;;;;;;;;17.56;72.03;95473.00;4928826;29;20016;-66
2022/10/24 11:08:19;;;;;;;;;;;;;;;17.75;71.93;95473.16;4950025;28;20016;-66
2022/10/24 11:11:06;;;;;;;;;;;;;;;17.33;73.02;95475.38;4928968;29;20535;-67
2022/10/24 11:13:37;;;;;;;;;;;;;;;17.24;74.16;95486.25;4944484;28;20023;-66
2022/10/24 11:16:06;;;;;;;;;;;;;;;17.71;73.44;95485.75;4928830;29;20130;-66
2022/10/24 11:18:34;;;;;;;;;;;;;;;17.48;73.94;95490.03;4930117;28;20008;-66
2022/10/24 11:21:02;;;;;;;;;;;;;;;17.65;73.38;95503.22;4928792;29;20439;-66
2022/10/24 11:23:37;;;;;;;;;;;;;;;17.32;73.40;95506.09;4944163;28;20705;-67
2022/10/24 11:26:06;;;;;;;;;;;;;;;16.99;75.30;95509.66;4928055;29;20460;-67
2022/10/24 11:28:31;;;;;;;;;;;;;;;16.79;76.22;95505.97;4944617;28;20123;-67
2022/10/24 11:31:05;;;;;;;;;;;;;;;17.08;76.24;95504.19;4929960;29;20111;-66
2022/10/24 11:33:35;;;;;;;;;;;;;;;16.93;75.61;95502.94;4943914;28;20019;-66
2022/10/24 11:36:11;;;;;;;;;;;;;;;17.00;75.96;95503.19;4928522;29;20020;-66
2022/10/24 11:38:41;;;;;;;;;;;;;;;17.36;75.22;95506.97;4930054;29;20101;-66
2022/10/24 11:41:33;;;;;;;;;;;;;;;17.42;73.79;95502.94;4928744;29;20026;-67
2022/10/24 11:44:02;;;;;;;;;;;;;;;17.49;75.04;95496.97;4932350;28;20046;-67
2022/10/24 11:46:33;;;;;;;;;;;;;;;17.81;74.59;95501.44;4944298;28;20419;-66
2022/10/24 11:49:01;;;;;;;;;;;;;;;17.62;72.89;95495.84;4944321;28;20030;-66
2022/10/24 11:51:31;;;;;;;;;;;;;;;17.34;74.38;95499.22;4928514;29;20062;-66
2022/10/24 11:53:58;;;;;;;;;;;;;;;17.62;73.25;95504.69;4943636;28;20106;-67
2022/10/24 11:56:29;;;;;;;;;;;;;;;17.65;74.03;95503.22;4943866;28;20015;-66
2022/10/24 11:58:59;;;;;;;;;;;;;;;17.81;74.23;95511.38;4929622;29;20012;-66
2022/10/24 12:01:44;;;;;;;;;;;;;;;17.57;73.41;95521.06;4931777;28;20019;-66
2022/10/24 12:04:24;;;;;;;;;;;;;;;17.08;74.98;95529.16;4932569;29;20107;-66
2022/10/24 12:07:08;;;;;;;;;;;;;;;17.03;76.39;95531.28;4946474;28;20062;-67
2022/10/24 12:09:36;;;;;;;;;;;;;;;17.60;75.11;95527.66;4931533;29;20015;-66
2022/10/24 12:12:29;;;;;;;;;;;;;;;17.79;74.90;95524.41;4932691;29;20111;-66
2022/10/24 12:15:09;;;;;;;;;;;;;;;17.70;73.98;95526.41;4931786;29;20067;-67
2022/10/24 12:17:59;;;;;;;;;;;;;;;16.99;74.52;95517.72;4932688;29;20023;-66
2022/10/24 12:20:25;;;;;;;;;;;;;;;17.08;75.72;95513.03;4947708;28;20016;-66
2022/10/24 12:22:51;;;;;;;;;;;;;;;16.89;75.47;95510.91;4932626;29;20020;-67
2022/10/24 12:25:20;;;;;;;;;;;;;;;17.03;74.94;95509.78;4931786;29;20573;-65
2022/10/24 12:27:51;;;;;;;;;;;;;;;16.68;75.99;95507.47;4932755;29;20111;-66
2022/10/24 12:30:20;;;;;;;;;;;;;;;16.71;76.33;95500.66;4977460;23;20127;-70
2022/10/24 12:32:47;;;;;;;;;;;;;;;17.18;76.06;95484.13;5072955;28;20013;-72
2022/10/24 12:35:32;;;;;;;;;;;;;;;17.18;74.90;95470.69;5071514;28;20080;-72
2022/10/24 12:37:58;;;;;;;;;;;;;;;17.55;75.49;95474.88;5071599;28;20056;-73
2022/10/24 12:40:42;;;;;;;;;;;;;;;17.52;73.26;95496.31;5071422;28;20601;-73
2022/10/24 12:43:13;;;;;;;;;;;;;;;17.49;73.55;95505.03;5070616;28;20028;-73
2022/10/24 12:45:38;;;;;;;;;;;;;;;17.22;73.34;95518.06;5071849;28;20063;-73
2022/10/24 12:48:26;;;;;;;;;;;;;;;17.44;74.32;95516.03;5072415;28;20009;-73
2022/10/24 12:50:56;;;;;;;;;;;;;;;17.83;74.33;95504.56;5043672;28;20027;-73
2022/10/24 12:53:30;;;;;;;;;;;;;;;17.85;73.14;95501.50;5053872;28;20025;-71